sensor_id;sensor_type;location;lat;lon;timestamp;pressure;altitude;pressure_sealevel;temperature
71630;BMP280;59479;51.902;8.212;2024-01-15T00:00:11;99431.66;;;2.99
71630;BMP280;59479;51.902;8.212;2024-01-15T00:02:37;99417.59;;;2.98
71630;BMP280;59479;51.902;8.212;2024-01-15T00:05:02;99411.75;;;2.96
71630;BMP280;59479;51.902;8.212;2024-01-15T00:07:28;99412.59;;;2.95
71630;BMP280;59479;51.902;8.212;2024-01-15T00:09:53;99411.78;;;2.99
71630;BMP280;59479;51.902;8.212;2024-01-15T00:12:18;99415.13;;;3.01
71630;BMP280;59479;51.902;8.212;2024-01-15T00:14:44;99405.22;;;3.04
71630;BMP280;59479;51.902;8.212;2024-01-15T00:17:09;99401.06;;;3.03
71630;BMP280;59479;51.902;8.212;2024-01-15T00:19:34;99405.28;;;3.07
71630;BMP280;59479;51.902;8.212;2024-01-15T00:22:00;99391.91;;;2.97
71630;BMP280;59479;51.902;8.212;2024-01-15T00:24:25;99395.25;;;3.01
71630;BMP280;59479;51.902;8.212;2024-01-15T00:26:50;99395.25;;;3.01
71630;BMP280;59479;51.902;8.212;2024-01-15T00:29:16;99396.97;;;3.03
71630;BMP280;59479;51.902;8.212;2024-01-15T00:31:41;99390.28;;;2.98
71630;BMP280;59479;51.902;8.212;2024-01-15T00:34:06;99392.75;;;2.95
71630;BMP280;59479;51.902;8.212;2024-01-15T00:36:32;99395.25;;;3.01
71630;BMP280;59479;51.902;8.212;2024-01-15T00:38:57;99392.91;;;3.11
71630;BMP280;59479;51.902;8.212;2024-01-15T00:41:22;99389.56;;;3.09
71630;BMP280;59479;51.902;8.212;2024-01-15T00:43:48;99396.97;;;3.08
71630;BMP280;59479;51.902;8.212;2024-01-15T00:46:15;99392.13;;;3.17
71630;BMP280;59479;51.902;8.212;2024-01-15T00:48:40;99389.66;;;3.17
71630;BMP280;59479;51.902;8.212;2024-01-15T00:51:05;99391.31;;;3.16
71630;BMP280;59479;51.902;8.212;2024-01-15T00:53:31;99386.19;;;3.04
71630;BMP280;59479;51.902;8.212;2024-01-15T00:55:56;99383.00;;;3.14
71630;BMP280;59479;51.902;8.212;2024-01-15T00:58:22;99382.91;;;3.04
71630;BMP280;59479;51.902;8.212;2024-01-15T01:00:47;99390.44;;;3.16
71630;BMP280;59479;51.902;8.212;2024-01-15T01:03:12;99388.81;;;3.18
71630;BMP280;59479;51.902;8.212;2024-01-15T01:05:38;99383.09;;;3.23
71630;BMP280;59479;51.902;8.212;2024-01-15T01:08:03;99383.78;;;3.09
71630;BMP280;59479;51.902;8.212;2024-01-15T01:10:29;99383.78;;;3.09
71630;BMP280;59479;51.902;8.212;2024-01-15T01:12:54;99387.13;;;3.14
71630;BMP280;59479;51.902;8.212;2024-01-15T01:15:19;99389.56;;;3.09
71630;BMP280;59479;51.902;8.212;2024-01-15T01:17:45;99395.38;;;3.13
71630;BMP280;59479;51.902;8.212;2024-01-15T01:20:11;99396.97;;;3.08
71630;BMP280;59479;51.902;8.212;2024-01-15T01:22:37;99387.09;;;3.11
71630;BMP280;59479;51.902;8.212;2024-01-15T01:25:02;99376.28;;;3.06
71630;BMP280;59479;51.902;8.212;2024-01-15T01:27:28;99370.50;;;3.04
71630;BMP280;59479;51.902;8.212;2024-01-15T01:29:53;99372.16;;;3.08
71630;BMP280;59479;51.902;8.212;2024-01-15T01:32:19;99362.25;;;3.06
71630;BMP280;59479;51.902;8.212;2024-01-15T01:34:44;99365.53;;;3.04
71630;BMP280;59479;51.902;8.212;2024-01-15T01:37:10;99367.94;;;2.96
71630;BMP280;59479;51.902;8.212;2024-01-15T01:39:38;99374.50;;;2.92
71630;BMP280;59479;51.902;8.212;2024-01-15T01:42:04;99373.69;;;2.92
71630;BMP280;59479;51.902;8.212;2024-01-15T01:44:29;99367.91;;;2.93
71630;BMP280;59479;51.902;8.212;2024-01-15T01:46:55;99351.34;;;2.92
71630;BMP280;59479;51.902;8.212;2024-01-15T01:49:23;99359.66;;;2.97
71630;BMP280;59479;51.902;8.212;2024-01-15T01:51:48;99356.41;;;3.03
71630;BMP280;59479;51.902;8.212;2024-01-15T01:54:14;99352.28;;;3.02
71630;BMP280;59479;51.902;8.212;2024-01-15T01:56:41;99360.53;;;2.98
71630;BMP280;59479;51.902;8.212;2024-01-15T01:59:07;99360.44;;;2.92
71630;BMP280;59479;51.902;8.212;2024-01-15T02:01:34;99349.72;;;2.93
71630;BMP280;59479;51.902;8.212;2024-01-15T02:04:00;99353.03;;;2.95
71630;BMP280;59479;51.902;8.212;2024-01-15T02:06:26;99355.56;;;3.02
71630;BMP280;59479;51.902;8.212;2024-01-15T02:08:52;99344.00;;;3.04
71630;BMP280;59479;51.902;8.212;2024-01-15T02:11:17;99352.19;;;2.96
71630;BMP280;59479;51.902;8.212;2024-01-15T02:13:43;99347.25;;;2.96
71630;BMP280;59479;51.902;8.212;2024-01-15T02:16:08;99347.19;;;2.90
71630;BMP280;59479;51.902;8.212;2024-01-15T02:18:43;99346.41;;;2.94
71630;BMP280;59479;51.902;8.212;2024-01-15T02:21:09;99348.84;;;2.88
71630;BMP280;59479;51.902;8.212;2024-01-15T02:23:36;99335.53;;;2.80
71630;BMP280;59479;51.902;8.212;2024-01-15T02:26:02;99346.31;;;2.85
71630;BMP280;59479;51.902;8.212;2024-01-15T02:28:28;99334.81;;;2.92
71630;BMP280;59479;51.902;8.212;2024-01-15T02:30:54;99335.63;;;2.92
71630;BMP280;59479;51.902;8.212;2024-01-15T02:33:19;99336.50;;;2.95
71630;BMP280;59479;51.902;8.212;2024-01-15T02:35:44;99338.09;;;2.91
71630;BMP280;59479;51.902;8.212;2024-01-15T02:38:11;99333.94;;;2.88
71630;BMP280;59479;51.902;8.212;2024-01-15T02:40:38;99338.16;;;2.96
71630;BMP280;59479;51.902;8.212;2024-01-15T02:43:03;99340.69;;;3.01
71630;BMP280;59479;51.902;8.212;2024-01-15T02:45:29;99338.97;;;2.95
71630;BMP280;59479;51.902;8.212;2024-01-15T02:47:54;99351.38;;;2.95
71630;BMP280;59479;51.902;8.212;2024-01-15T02:50:20;99347.13;;;2.86
71630;BMP280;59479;51.902;8.212;2024-01-15T02:52:45;99342.13;;;2.81
71630;BMP280;59479;51.902;8.212;2024-01-15T02:55:11;99352.16;;;2.90
71630;BMP280;59479;51.902;8.212;2024-01-15T02:57:36;99347.28;;;2.99
71630;BMP280;59479;51.902;8.212;2024-01-15T03:00:02;99347.97;;;2.85
71630;BMP280;59479;51.902;8.212;2024-01-15T03:02:28;99351.28;;;2.85
71630;BMP280;59479;51.902;8.212;2024-01-15T03:04:54;99344.69;;;2.87
71630;BMP280;59479;51.902;8.212;2024-01-15T03:07:19;99345.41;;;2.77
71630;BMP280;59479;51.902;8.212;2024-01-15T03:09:44;99352.03;;;2.81
71630;BMP280;59479;51.902;8.212;2024-01-15T03:12:10;99347.94;;;2.82
71630;BMP280;59479;51.902;8.212;2024-01-15T03:14:36;99352.88;;;2.79
71630;BMP280;59479;51.902;8.212;2024-01-15T03:17:01;99355.31;;;2.77
71630;BMP280;59479;51.902;8.212;2024-01-15T03:19:27;99342.03;;;2.72
71630;BMP280;59479;51.902;8.212;2024-01-15T03:21:52;99346.94;;;2.68
71630;BMP280;59479;51.902;8.212;2024-01-15T03:24:18;99343.72;;;2.76
71630;BMP280;59479;51.902;8.212;2024-01-15T03:26:43;99337.06;;;2.71
71630;BMP280;59479;51.902;8.212;2024-01-15T03:29:09;99335.41;;;2.71
71630;BMP280;59479;51.902;8.212;2024-01-15T03:31:34;99343.72;;;2.73
71630;BMP280;59479;51.902;8.212;2024-01-15T03:33:59;99332.91;;;2.71
71630;BMP280;59479;51.902;8.212;2024-01-15T03:36:25;99327.25;;;2.81
71630;BMP280;59479;51.902;8.212;2024-01-15T03:38:50;99327.22;;;2.78
71630;BMP280;59479;51.902;8.212;2024-01-15T03:41:16;99334.66;;;2.77
71630;BMP280;59479;51.902;8.212;2024-01-15T03:43:41;99326.38;;;2.78
71630;BMP280;59479;51.902;8.212;2024-01-15T03:46:07;99336.28;;;2.75
71630;BMP280;59479;51.902;8.212;2024-01-15T03:48:32;99322.22;;;2.75
71630;BMP280;59479;51.902;8.212;2024-01-15T03:50:57;99320.63;;;2.80
71630;BMP280;59479;51.902;8.212;2024-01-15T03:53:23;99329.00;;;2.88
71630;BMP280;59479;51.902;8.212;2024-01-15T03:55:49;99338.91;;;2.87
71630;BMP280;59479;51.902;8.212;2024-01-15T03:58:14;99332.22;;;2.83
71630;BMP280;59479;51.902;8.212;2024-01-15T04:00:40;99337.13;;;2.75
71630;BMP280;59479;51.902;8.212;2024-01-15T04:03:06;99346.22;;;2.76
71630;BMP280;59479;51.902;8.212;2024-01-15T04:05:31;99344.63;;;2.84
71630;BMP280;59479;51.902;8.212;2024-01-15T04:07:56;99340.47;;;2.79
71630;BMP280;59479;51.902;8.212;2024-01-15T04:10:22;99347.91;;;2.79
71630;BMP280;59479;51.902;8.212;2024-01-15T04:12:47;99328.88;;;2.79
71630;BMP280;59479;51.902;8.212;2024-01-15T04:15:13;99335.56;;;2.83
71630;BMP280;59479;51.902;8.212;2024-01-15T04:17:38;99331.38;;;2.81
71630;BMP280;59479;51.902;8.212;2024-01-15T04:20:04;99331.38;;;2.81
71630;BMP280;59479;51.902;8.212;2024-01-15T04:22:29;99330.63;;;2.89
71630;BMP280;59479;51.902;8.212;2024-01-15T04:24:55;99335.47;;;2.77
71630;BMP280;59479;51.902;8.212;2024-01-15T04:27:20;99329.72;;;2.81
71630;BMP280;59479;51.902;8.212;2024-01-15T04:29:45;99333.94;;;2.88
71630;BMP280;59479;51.902;8.212;2024-01-15T04:32:11;99331.41;;;2.84
71630;BMP280;59479;51.902;8.212;2024-01-15T04:34:36;99324.03;;;2.88
71630;BMP280;59479;51.902;8.212;2024-01-15T04:37:02;99329.00;;;2.91
71630;BMP280;59479;51.902;8.212;2024-01-15T04:39:27;99320.69;;;2.85
71630;BMP280;59479;51.902;8.212;2024-01-15T04:41:53;99319.88;;;2.89
71630;BMP280;59479;51.902;8.212;2024-01-15T04:44:18;99310.84;;;2.93
71630;BMP280;59479;51.902;8.212;2024-01-15T04:46:44;99322.41;;;2.94
71630;BMP280;59479;51.902;8.212;2024-01-15T04:49:10;99307.50;;;2.90
71630;BMP280;59479;51.902;8.212;2024-01-15T04:51:36;99306.59;;;2.84
71630;BMP280;59479;51.902;8.212;2024-01-15T04:54:01;99304.09;;;2.82
71630;BMP280;59479;51.902;8.212;2024-01-15T04:56:27;99302.50;;;2.87
71630;BMP280;59479;51.902;8.212;2024-01-15T04:58:52;99303.41;;;2.95
71630;BMP280;59479;51.902;8.212;2024-01-15T05:01:17;99297.47;;;2.81
71630;BMP280;59479;51.902;8.212;2024-01-15T05:03:43;99299.22;;;2.88
71630;BMP280;59479;51.902;8.212;2024-01-15T05:06:09;99295.97;;;2.95
71630;BMP280;59479;51.902;8.212;2024-01-15T05:08:34;99290.16;;;2.92
71630;BMP280;59479;51.902;8.212;2024-01-15T05:10:59;99295.09;;;2.90
71630;BMP280;59479;51.902;8.212;2024-01-15T05:13:25;99289.28;;;2.91
71630;BMP280;59479;51.902;8.212;2024-01-15T05:15:50;99290.06;;;2.84
71630;BMP280;59479;51.902;8.212;2024-01-15T05:18:16;99290.78;;;2.74
71630;BMP280;59479;51.902;8.212;2024-01-15T05:20:42;99292.53;;;2.80
71630;BMP280;59479;51.902;8.212;2024-01-15T05:23:07;99289.22;;;2.82
71630;BMP280;59479;51.902;8.212;2024-01-15T05:25:32;99293.34;;;2.79
71630;BMP280;59479;51.902;8.212;2024-01-15T05:27:58;99295.81;;;2.80
71630;BMP280;59479;51.902;8.212;2024-01-15T05:30:23;99290.03;;;2.78
71630;BMP280;59479;51.902;8.212;2024-01-15T05:32:48;99301.69;;;2.87
71630;BMP280;59479;51.902;8.212;2024-01-15T05:35:14;99290.09;;;2.86
71630;BMP280;59479;51.902;8.212;2024-01-15T05:37:44;99295.88;;;2.88
71630;BMP280;59479;51.902;8.212;2024-01-15T05:40:10;99298.38;;;2.85
71630;BMP280;59479;51.902;8.212;2024-01-15T05:42:36;99290.13;;;2.89
71630;BMP280;59479;51.902;8.212;2024-01-15T05:45:01;99295.94;;;2.92
71630;BMP280;59479;51.902;8.212;2024-01-15T05:47:29;99299.28;;;2.97
71630;BMP280;59479;51.902;8.212;2024-01-15T05:49:56;99299.25;;;2.94
71630;BMP280;59479;51.902;8.212;2024-01-15T05:52:22;99300.88;;;2.91
71630;BMP280;59479;51.902;8.212;2024-01-15T05:54:47;99284.31;;;2.90
71630;BMP280;59479;51.902;8.212;2024-01-15T05:57:13;99292.63;;;2.90
71630;BMP280;59479;51.902;8.212;2024-01-15T05:59:38;99288.47;;;2.89
71630;BMP280;59479;51.902;8.212;2024-01-15T06:02:04;99281.06;;;2.93
71630;BMP280;59479;51.902;8.212;2024-01-15T06:04:29;99281.13;;;2.98
71630;BMP280;59479;51.902;8.212;2024-01-15T06:06:54;99282.75;;;2.99
71630;BMP280;59479;51.902;8.212;2024-01-15T06:09:20;99296.72;;;2.87
71630;BMP280;59479;51.902;8.212;2024-01-15T06:11:45;99293.41;;;2.88
71630;BMP280;59479;51.902;8.212;2024-01-15T06:14:10;99281.06;;;2.92
71630;BMP280;59479;51.902;8.212;2024-01-15T06:16:36;99281.88;;;2.92
71630;BMP280;59479;51.902;8.212;2024-01-15T06:19:01;99284.41;;;2.97
71630;BMP280;59479;51.902;8.212;2024-01-15T06:21:26;99290.97;;;2.91
71630;BMP280;59479;51.902;8.212;2024-01-15T06:23:52;99294.25;;;2.91
71630;BMP280;59479;51.902;8.212;2024-01-15T06:26:17;99284.38;;;2.95
71630;BMP280;59479;51.902;8.212;2024-01-15T06:28:42;99288.50;;;2.92
71630;BMP280;59479;51.902;8.212;2024-01-15T06:31:08;99283.53;;;2.92
71630;BMP280;59479;51.902;8.212;2024-01-15T06:33:33;99282.72;;;2.93
71630;BMP280;59479;51.902;8.212;2024-01-15T06:35:59;99286.09;;;2.98
71630;BMP280;59479;51.902;8.212;2024-01-15T06:38:24;99286.88;;;2.97
71630;BMP280;59479;51.902;8.212;2024-01-15T06:40:50;99285.22;;;2.97
71630;BMP280;59479;51.902;8.212;2024-01-15T06:43:17;99291.81;;;2.94
71630;BMP280;59479;51.902;8.212;2024-01-15T06:45:45;99287.69;;;2.96
71630;BMP280;59479;51.902;8.212;2024-01-15T06:48:10;99281.88;;;2.92
71630;BMP280;59479;51.902;8.212;2024-01-15T06:50:39;99298.38;;;2.88
71630;BMP280;59479;51.902;8.212;2024-01-15T06:53:05;99293.50;;;2.96
71630;BMP280;59479;51.902;8.212;2024-01-15T06:55:30;99292.56;;;2.86
71630;BMP280;59479;51.902;8.212;2024-01-15T06:57:55;99286.78;;;2.85
71630;BMP280;59479;51.902;8.212;2024-01-15T07:00:21;99291.78;;;2.88
71630;BMP280;59479;51.902;8.212;2024-01-15T07:02:46;99296.63;;;2.78
71630;BMP280;59479;51.902;8.212;2024-01-15T07:05:12;99302.44;;;2.81
71630;BMP280;59479;51.902;8.212;2024-01-15T07:07:37;99297.56;;;2.89
71630;BMP280;59479;51.902;8.212;2024-01-15T07:10:03;99304.13;;;2.84
71630;BMP280;59479;51.902;8.212;2024-01-15T07:12:29;99307.53;;;2.92
71630;BMP280;59479;51.902;8.212;2024-01-15T07:14:56;99305.94;;;2.98
71630;BMP280;59479;51.902;8.212;2024-01-15T07:17:21;99315.78;;;2.92
71630;BMP280;59479;51.902;8.212;2024-01-15T07:19:46;99307.44;;;2.84
71630;BMP280;59479;51.902;8.212;2024-01-15T07:22:12;99311.59;;;2.85
71630;BMP280;59479;51.902;8.212;2024-01-15T07:24:37;99305.81;;;2.89
71630;BMP280;59479;51.902;8.212;2024-01-15T07:27:03;99314.97;;;2.94
71630;BMP280;59479;51.902;8.212;2024-01-15T07:29:30;99310.91;;;3.02
71630;BMP280;59479;51.902;8.212;2024-01-15T07:31:58;99309.16;;;2.88
71630;BMP280;59479;51.902;8.212;2024-01-15T07:34:23;99310.84;;;2.93
71630;BMP280;59479;51.902;8.212;2024-01-15T07:36:48;99316.56;;;2.90
71630;BMP280;59479;51.902;8.212;2024-01-15T07:39:14;99309.16;;;2.88
71630;BMP280;59479;51.902;8.212;2024-01-15T07:41:39;99308.31;;;2.89
71630;BMP280;59479;51.902;8.212;2024-01-15T07:44:05;99311.66;;;2.94
71630;BMP280;59479;51.902;8.212;2024-01-15T07:46:30;99314.09;;;2.91
71630;BMP280;59479;51.902;8.212;2024-01-15T07:48:57;99316.59;;;2.91
71630;BMP280;59479;51.902;8.212;2024-01-15T07:51:25;99310.00;;;2.92
71630;BMP280;59479;51.902;8.212;2024-01-15T07:53:53;99316.56;;;2.90
71630;BMP280;59479;51.902;8.212;2024-01-15T07:56:18;99307.53;;;2.93
71630;BMP280;59479;51.902;8.212;2024-01-15T07:58:44;99307.47;;;2.87
71630;BMP280;59479;51.902;8.212;2024-01-15T08:01:09;99305.78;;;2.83
71630;BMP280;59479;51.902;8.212;2024-01-15T08:03:35;99309.16;;;2.88
71630;BMP280;59479;51.902;8.212;2024-01-15T08:06:00;99305.72;;;2.77
71630;BMP280;59479;51.902;8.212;2024-01-15T08:08:25;99310.72;;;2.80
71630;BMP280;59479;51.902;8.212;2024-01-15T08:10:53;99316.47;;;2.78
71630;BMP280;59479;51.902;8.212;2024-01-15T08:13:19;99314.03;;;2.82
71630;BMP280;59479;51.902;8.212;2024-01-15T08:15:45;99312.34;;;2.78
71630;BMP280;59479;51.902;8.212;2024-01-15T08:18:10;99307.41;;;2.81
71630;BMP280;59479;51.902;8.212;2024-01-15T08:20:36;99307.38;;;2.78
71630;BMP280;59479;51.902;8.212;2024-01-15T08:23:01;99302.41;;;2.75
71630;BMP280;59479;51.902;8.212;2024-01-15T08:25:27;99301.53;;;2.72
71630;BMP280;59479;51.902;8.212;2024-01-15T08:27:52;99304.88;;;2.77
71630;BMP280;59479;51.902;8.212;2024-01-15T08:30:18;99307.34;;;2.75
71630;BMP280;59479;51.902;8.212;2024-01-15T08:32:47;99303.22;;;2.76
71630;BMP280;59479;51.902;8.212;2024-01-15T08:35:12;99303.19;;;2.73
71630;BMP280;59479;51.902;8.212;2024-01-15T08:37:38;99315.63;;;2.77
71630;BMP280;59479;51.902;8.212;2024-01-15T08:40:04;99303.25;;;2.79
71630;BMP280;59479;51.902;8.212;2024-01-15T08:42:29;99300.84;;;2.88
71630;BMP280;59479;51.902;8.212;2024-01-15T08:44:55;99297.53;;;2.87
71630;BMP280;59479;51.902;8.212;2024-01-15T08:47:20;99305.75;;;2.80
71630;BMP280;59479;51.902;8.212;2024-01-15T08:49:46;99301.69;;;2.88
71630;BMP280;59479;51.902;8.212;2024-01-15T08:52:11;99305.81;;;2.85
71630;BMP280;59479;51.902;8.212;2024-01-15T08:54:37;99300.84;;;2.85
71630;BMP280;59479;51.902;8.212;2024-01-15T08:57:02;99309.09;;;2.85
71630;BMP280;59479;51.902;8.212;2024-01-15T08:59:28;99304.09;;;2.82
71630;BMP280;59479;51.902;8.212;2024-01-15T09:01:53;99300.81;;;2.83
71630;BMP280;59479;51.902;8.212;2024-01-15T09:04:19;99302.47;;;2.84
71630;BMP280;59479;51.902;8.212;2024-01-15T09:06:45;99309.06;;;2.81
71630;BMP280;59479;51.902;8.212;2024-01-15T09:09:12;99302.44;;;2.78
71630;BMP280;59479;51.902;8.212;2024-01-15T09:11:38;99301.66;;;2.84
71630;BMP280;59479;51.902;8.212;2024-01-15T09:14:03;99308.25;;;2.82
71630;BMP280;59479;51.902;8.212;2024-01-15T09:16:29;99311.59;;;2.85
71630;BMP280;59479;51.902;8.212;2024-01-15T09:18:54;99304.91;;;2.81
71630;BMP280;59479;51.902;8.212;2024-01-15T09:21:22;99305.88;;;2.93
71630;BMP280;59479;51.902;8.212;2024-01-15T09:23:47;99309.16;;;2.91
71630;BMP280;59479;51.902;8.212;2024-01-15T09:26:12;99316.56;;;2.87
71630;BMP280;59479;51.902;8.212;2024-01-15T09:28:38;99304.09;;;2.81
71630;BMP280;59479;51.902;8.212;2024-01-15T09:31:03;99302.44;;;2.81
71630;BMP280;59479;51.902;8.212;2024-01-15T09:33:29;99302.47;;;2.84
71630;BMP280;59479;51.902;8.212;2024-01-15T09:35:54;99310.66;;;2.77
71630;BMP280;59479;51.902;8.212;2024-01-15T09:38:20;99307.41;;;2.83
71630;BMP280;59479;51.902;8.212;2024-01-15T09:40:46;99310.75;;;2.83
71630;BMP280;59479;51.902;8.212;2024-01-15T09:43:12;99297.53;;;2.86
71630;BMP280;59479;51.902;8.212;2024-01-15T09:45:38;99297.50;;;2.84
71630;BMP280;59479;51.902;8.212;2024-01-15T09:48:04;99303.34;;;2.89
71630;BMP280;59479;51.902;8.212;2024-01-15T09:50:29;99308.25;;;2.83
71630;BMP280;59479;51.902;8.212;2024-01-15T09:52:55;99305.78;;;2.86
71630;BMP280;59479;51.902;8.212;2024-01-15T09:55:23;99305.84;;;2.92
71630;BMP280;59479;51.902;8.212;2024-01-15T09:57:48;99316.56;;;2.90
71630;BMP280;59479;51.902;8.212;2024-01-15T10:00:17;99309.19;;;2.94
71630;BMP280;59479;51.902;8.212;2024-01-15T10:02:42;99322.38;;;2.90
71630;BMP280;59479;51.902;8.212;2024-01-15T10:05:08;99321.53;;;2.87
71630;BMP280;59479;51.902;8.212;2024-01-15T10:07:35;99311.63;;;2.88
71630;BMP280;59479;51.902;8.212;2024-01-15T10:10:01;99315.00;;;2.97
71630;BMP280;59479;51.902;8.212;2024-01-15T10:12:26;99311.69;;;2.97
71630;BMP280;59479;51.902;8.212;2024-01-15T10:14:52;99311.59;;;2.90
71630;BMP280;59479;51.902;8.212;2024-01-15T10:17:17;99302.53;;;2.89
71630;BMP280;59479;51.902;8.212;2024-01-15T10:19:44;99305.03;;;2.92
71630;BMP280;59479;51.902;8.212;2024-01-15T10:22:10;99296.75;;;2.91
71630;BMP280;59479;51.902;8.212;2024-01-15T10:24:37;99288.53;;;2.96
71630;BMP280;59479;51.902;8.212;2024-01-15T10:27:09;99295.09;;;2.90
71630;BMP280;59479;51.902;8.212;2024-01-15T10:29:35;99295.94;;;2.92
71630;BMP280;59479;51.902;8.212;2024-01-15T10:32:01;99295.94;;;2.93
71630;BMP280;59479;51.902;8.212;2024-01-15T10:34:26;99281.13;;;3.01
71630;BMP280;59479;51.902;8.212;2024-01-15T10:36:52;99290.22;;;3.00
71630;BMP280;59479;51.902;8.212;2024-01-15T10:39:24;99279.44;;;2.97
71630;BMP280;59479;51.902;8.212;2024-01-15T10:41:50;99290.22;;;3.00
71630;BMP280;59479;51.902;8.212;2024-01-15T10:44:18;99280.25;;;2.97
71630;BMP280;59479;51.902;8.212;2024-01-15T10:46:45;99277.78;;;2.99
71630;BMP280;59479;51.902;8.212;2024-01-15T10:49:13;99281.19;;;3.07
71630;BMP280;59479;51.902;8.212;2024-01-15T10:51:39;99278.78;;;3.19
71630;BMP280;59479;51.902;8.212;2024-01-15T10:54:05;99277.94;;;3.14
71630;BMP280;59479;51.902;8.212;2024-01-15T10:56:32;99281.16;;;3.04
71630;BMP280;59479;51.902;8.212;2024-01-15T10:59:00;99271.22;;;3.04
71630;BMP280;59479;51.902;8.212;2024-01-15T11:01:26;99278.00;;;3.20
71630;BMP280;59479;51.902;8.212;2024-01-15T11:03:51;99274.59;;;3.10
71630;BMP280;59479;51.902;8.212;2024-01-15T11:06:24;99277.03;;;3.06
71630;BMP280;59479;51.902;8.212;2024-01-15T11:08:50;99281.97;;;3.03
71630;BMP280;59479;51.902;8.212;2024-01-15T11:11:16;99283.69;;;3.10
71630;BMP280;59479;51.902;8.212;2024-01-15T11:13:43;99275.47;;;3.15
71630;BMP280;59479;51.902;8.212;2024-01-15T11:16:14;99275.47;;;3.17
71630;BMP280;59479;51.902;8.212;2024-01-15T11:19:01;99273.00;;;3.17
71630;BMP280;59479;51.902;8.212;2024-01-15T11:21:27;99282.94;;;3.18
71630;BMP280;59479;51.902;8.212;2024-01-15T11:23:55;99273.03;;;3.20
71630;BMP280;59479;51.902;8.212;2024-01-15T11:26:32;99278.00;;;3.20
71630;BMP280;59479;51.902;8.212;2024-01-15T11:29:09;99277.94;;;3.14
71630;BMP280;59479;51.902;8.212;2024-01-15T11:34:03;99278.78;;;3.17
71630;BMP280;59479;51.902;8.212;2024-01-15T11:41:58;99277.16;;;3.22
71630;BMP280;59479;51.902;8.212;2024-01-15T11:44:25;99277.97;;;3.18
71630;BMP280;59479;51.902;8.212;2024-01-15T11:50:00;99265.59;;;3.24
71630;BMP280;59479;51.902;8.212;2024-01-15T11:52:34;99266.31;;;3.13
71630;BMP280;59479;51.902;8.212;2024-01-15T11:57:53;99254.81;;;3.21
71630;BMP280;59479;51.902;8.212;2024-01-15T12:00:22;99263.91;;;3.19
71630;BMP280;59479;51.902;8.212;2024-01-15T12:02:48;99273.81;;;3.17
71630;BMP280;59479;51.902;8.212;2024-01-15T12:05:19;99278.78;;;3.17
71630;BMP280;59479;51.902;8.212;2024-01-15T12:07:47;99289.53;;;3.18
71630;BMP280;59479;51.902;8.212;2024-01-15T12:10:20;99278.03;;;3.29
71630;BMP280;59479;51.902;8.212;2024-01-15T12:13:00;99270.63;;;3.36
71630;BMP280;59479;51.902;8.212;2024-01-15T12:15:28;99277.25;;;3.35
71630;BMP280;59479;51.902;8.212;2024-01-15T12:18:00;99275.53;;;3.27
71630;BMP280;59479;51.902;8.212;2024-01-15T12:20:28;99275.50;;;3.23
71630;BMP280;59479;51.902;8.212;2024-01-15T12:22:54;99277.25;;;3.30
71630;BMP280;59479;51.902;8.212;2024-01-15T12:25:21;99265.66;;;3.32
71630;BMP280;59479;51.902;8.212;2024-01-15T12:27:47;99274.00;;;3.42
71630;BMP280;59479;51.902;8.212;2024-01-15T12:30:13;99282.19;;;3.30
71630;BMP280;59479;51.902;8.212;2024-01-15T12:32:40;99281.41;;;3.33
71630;BMP280;59479;51.902;8.212;2024-01-15T12:35:07;99278.91;;;3.32
71630;BMP280;59479;51.902;8.212;2024-01-15T12:37:35;99287.19;;;3.34
71630;BMP280;59479;51.902;8.212;2024-01-15T12:40:00;99291.28;;;3.29
71630;BMP280;59479;51.902;8.212;2024-01-15T12:42:27;99285.47;;;3.27
71630;BMP280;59479;51.902;8.212;2024-01-15T12:44:55;99286.34;;;3.33
71630;BMP280;59479;51.902;8.212;2024-01-15T12:47:21;99283.91;;;3.36
71630;BMP280;59479;51.902;8.212;2024-01-15T12:49:47;99288.88;;;3.38
71630;BMP280;59479;51.902;8.212;2024-01-15T12:52:18;99281.41;;;3.36
71630;BMP280;59479;51.902;8.212;2024-01-15T12:54:44;99284.75;;;3.38
71630;BMP280;59479;51.902;8.212;2024-01-15T12:57:09;99283.16;;;3.49
71630;BMP280;59479;51.902;8.212;2024-01-15T12:59:34;99283.13;;;3.43
71630;BMP280;59479;51.902;8.212;2024-01-15T13:02:00;99274.84;;;3.44
71630;BMP280;59479;51.902;8.212;2024-01-15T13:04:25;99263.31;;;3.52
71630;BMP280;59479;51.902;8.212;2024-01-15T13:06:50;99274.91;;;3.53
71630;BMP280;59479;51.902;8.212;2024-01-15T13:09:17;99257.50;;;3.50
71630;BMP280;59479;51.902;8.212;2024-01-15T13:11:43;99274.06;;;3.50
71630;BMP280;59479;51.902;8.212;2024-01-15T13:14:09;99270.75;;;3.51
71630;BMP280;59479;51.902;8.212;2024-01-15T13:16:35;99266.59;;;3.53
71630;BMP280;59479;51.902;8.212;2024-01-15T13:19:00;99271.59;;;3.51
71630;BMP280;59479;51.902;8.212;2024-01-15T13:21:26;99271.53;;;3.45
71630;BMP280;59479;51.902;8.212;2024-01-15T13:23:51;99274.03;;;3.47
71630;BMP280;59479;51.902;8.212;2024-01-15T13:26:16;99268.31;;;3.58
71630;BMP280;59479;51.902;8.212;2024-01-15T13:28:43;99267.47;;;3.58
71630;BMP280;59479;51.902;8.212;2024-01-15T13:31:09;99274.88;;;3.50
71630;BMP280;59479;51.902;8.212;2024-01-15T13:33:34;99288.97;;;3.51
71630;BMP280;59479;51.902;8.212;2024-01-15T13:35:59;99285.66;;;3.54
71630;BMP280;59479;51.902;8.212;2024-01-15T13:38:25;99280.66;;;3.49
71630;BMP280;59479;51.902;8.212;2024-01-15T13:40:51;99283.09;;;3.40
71630;BMP280;59479;51.902;8.212;2024-01-15T13:43:17;99280.69;;;3.54
71630;BMP280;59479;51.902;8.212;2024-01-15T13:45:43;99283.19;;;3.55
71630;BMP280;59479;51.902;8.212;2024-01-15T13:48:09;99281.44;;;3.41
71630;BMP280;59479;51.902;8.212;2024-01-15T13:50:35;99275.59;;;3.33
71630;BMP280;59479;51.902;8.212;2024-01-15T13:53:01;99281.44;;;3.42
71630;BMP280;59479;51.902;8.212;2024-01-15T13:55:27;99287.97;;;3.29
71630;BMP280;59479;51.902;8.212;2024-01-15T13:57:54;99301.25;;;3.33
71630;BMP280;59479;51.902;8.212;2024-01-15T14:00:19;99287.25;;;3.41
71630;BMP280;59479;51.902;8.212;2024-01-15T14:02:45;99288.94;;;3.45
71630;BMP280;59479;51.902;8.212;2024-01-15T14:05:12;99299.63;;;3.38
71630;BMP280;59479;51.902;8.212;2024-01-15T14:07:38;99297.16;;;3.38
71630;BMP280;59479;51.902;8.212;2024-01-15T14:10:05;99300.47;;;3.40
71630;BMP280;59479;51.902;8.212;2024-01-15T14:12:30;99303.72;;;3.31
71630;BMP280;59479;51.902;8.212;2024-01-15T14:14:56;99303.75;;;3.33
71630;BMP280;59479;51.902;8.212;2024-01-15T14:17:21;99304.56;;;3.30
71630;BMP280;59479;51.902;8.212;2024-01-15T14:19:47;99297.09;;;3.30
71630;BMP280;59479;51.902;8.212;2024-01-15T14:22:12;99300.44;;;3.37
71630;BMP280;59479;51.902;8.212;2024-01-15T14:24:37;99286.34;;;3.31
71630;BMP280;59479;51.902;8.212;2024-01-15T14:27:03;99290.44;;;3.27